sensor_id;sensor_type;location;lat;lon;timestamp;temperature;humidity
78461;SHT31;67755;51.986;5.696;2023-03-15T00:01:23;8.4;55.5
78461;SHT31;67755;51.986;5.696;2023-03-15T00:03:53;8.4;55.6
78461;SHT31;67755;51.986;5.696;2023-03-15T00:06:23;8.4;55.7
78461;SHT31;67755;51.986;5.696;2023-03-15T00:08:52;8.4;55.9
78461;SHT31;67755;51.986;5.696;2023-03-15T00:11:22;8.3;56.3
78461;SHT31;67755;51.986;5.696;2023-03-15T00:13:53;8.3;56.4
78461;SHT31;67755;51.986;5.696;2023-03-15T00:16:23;8.3;56.6
78461;SHT31;67755;51.986;5.696;2023-03-15T00:18:53;8.3;56.8
78461;SHT31;67755;51.986;5.696;2023-03-15T00:21:23;8.3;57.1
78461;SHT31;67755;51.986;5.696;2023-03-15T00:23:55;8.3;57.1
78461;SHT31;67755;51.986;5.696;2023-03-15T00:26:25;8.3;57.0
78461;SHT31;67755;51.986;5.696;2023-03-15T00:28:57;8.3;57.3
78461;SHT31;67755;51.986;5.696;2023-03-15T00:31:27;8.3;57.5
78461;SHT31;67755;51.986;5.696;2023-03-15T00:33:58;8.2;57.6
78461;SHT31;67755;51.986;5.696;2023-03-15T00:36:28;8.2;58.0
78461;SHT31;67755;51.986;5.696;2023-03-15T00:38:58;8.2;58.1
78461;SHT31;67755;51.986;5.696;2023-03-15T00:41:27;8.2;58.1
78461;SHT31;67755;51.986;5.696;2023-03-15T00:44:00;8.2;58.3
78461;SHT31;67755;51.986;5.696;2023-03-15T00:46:30;8.2;58.5
78461;SHT31;67755;51.986;5.696;2023-03-15T00:49:00;8.2;58.4
78461;SHT31;67755;51.986;5.696;2023-03-15T00:51:29;8.2;58.6
78461;SHT31;67755;51.986;5.696;2023-03-15T00:54:00;8.2;58.6
78461;SHT31;67755;51.986;5.696;2023-03-15T00:56:31;8.2;58.7
78461;SHT31;67755;51.986;5.696;2023-03-15T00:59:00;8.2;58.9
78461;SHT31;67755;51.986;5.696;2023-03-15T01:01:32;8.2;58.8
78461;SHT31;67755;51.986;5.696;2023-03-15T01:04:02;8.3;58.6
78461;SHT31;67755;51.986;5.696;2023-03-15T01:06:31;8.3;58.7
78461;SHT31;67755;51.986;5.696;2023-03-15T01:09:01;8.2;58.6
78461;SHT31;67755;51.986;5.696;2023-03-15T01:11:31;8.2;58.3
78461;SHT31;67755;51.986;5.696;2023-03-15T01:14:00;8.2;58.5
78461;SHT31;67755;51.986;5.696;2023-03-15T01:16:31;8.2;58.6
78461;SHT31;67755;51.986;5.696;2023-03-15T01:19:01;8.2;58.4
78461;SHT31;67755;51.986;5.696;2023-03-15T01:21:30;8.2;58.8
78461;SHT31;67755;51.986;5.696;2023-03-15T01:24:00;8.2;58.8
78461;SHT31;67755;51.986;5.696;2023-03-15T01:26:29;8.2;58.6
78461;SHT31;67755;51.986;5.696;2023-03-15T01:28:59;8.2;58.7
78461;SHT31;67755;51.986;5.696;2023-03-15T01:31:29;8.2;59.0
78461;SHT31;67755;51.986;5.696;2023-03-15T01:33:59;8.2;59.0
78461;SHT31;67755;51.986;5.696;2023-03-15T01:36:29;8.2;59.2
78461;SHT31;67755;51.986;5.696;2023-03-15T01:39:01;8.2;59.2
78461;SHT31;67755;51.986;5.696;2023-03-15T01:41:30;8.2;59.2
78461;SHT31;67755;51.986;5.696;2023-03-15T01:44:00;8.2;58.9
78461;SHT31;67755;51.986;5.696;2023-03-15T01:46:30;8.2;58.7
78461;SHT31;67755;51.986;5.696;2023-03-15T01:49:05;8.2;58.4
78461;SHT31;67755;51.986;5.696;2023-03-15T01:51:39;8.2;58.4
78461;SHT31;67755;51.986;5.696;2023-03-15T01:54:15;8.2;58.5
78461;SHT31;67755;51.986;5.696;2023-03-15T01:56:51;8.2;58.4
78461;SHT31;67755;51.986;5.696;2023-03-15T01:59:27;8.2;58.2
78461;SHT31;67755;51.986;5.696;2023-03-15T02:01:59;8.2;58.5
78461;SHT31;67755;51.986;5.696;2023-03-15T02:04:34;8.3;58.7
78461;SHT31;67755;51.986;5.696;2023-03-15T02:07:07;8.3;58.6
78461;SHT31;67755;51.986;5.696;2023-03-15T02:09:46;8.4;58.4
78461;SHT31;67755;51.986;5.696;2023-03-15T02:12:18;8.5;57.9
78461;SHT31;67755;51.986;5.696;2023-03-15T02:14:49;8.6;57.6
78461;SHT31;67755;51.986;5.696;2023-03-15T02:17:27;8.6;57.0
78461;SHT31;67755;51.986;5.696;2023-03-15T02:20:03;8.6;56.7
78461;SHT31;67755;51.986;5.696;2023-03-15T02:22:42;8.7;56.4
78461;SHT31;67755;51.986;5.696;2023-03-15T02:25:24;8.7;56.2
78461;SHT31;67755;51.986;5.696;2023-03-15T02:27:56;8.8;55.7
78461;SHT31;67755;51.986;5.696;2023-03-15T02:30:26;8.8;55.3
78461;SHT31;67755;51.986;5.696;2023-03-15T02:32:57;8.8;55.0
78461;SHT31;67755;51.986;5.696;2023-03-15T02:35:31;8.8;54.6
78461;SHT31;67755;51.986;5.696;2023-03-15T02:38:00;8.8;54.2
78461;SHT31;67755;51.986;5.696;2023-03-15T02:40:30;8.8;54.2
78461;SHT31;67755;51.986;5.696;2023-03-15T02:43:05;8.8;54.4
78461;SHT31;67755;51.986;5.696;2023-03-15T02:45:37;8.7;54.3
78461;SHT31;67755;51.986;5.696;2023-03-15T02:48:09;8.7;54.5
78461;SHT31;67755;51.986;5.696;2023-03-15T02:50:39;8.7;54.6
78461;SHT31;67755;51.986;5.696;2023-03-15T02:53:09;8.6;54.7
78461;SHT31;67755;51.986;5.696;2023-03-15T02:55:38;8.6;54.7
78461;SHT31;67755;51.986;5.696;2023-03-15T02:58:08;8.6;55.0
78461;SHT31;67755;51.986;5.696;2023-03-15T03:00:38;8.5;55.1
78461;SHT31;67755;51.986;5.696;2023-03-15T03:03:09;8.5;55.0
78461;SHT31;67755;51.986;5.696;2023-03-15T03:05:39;8.5;55.2
78461;SHT31;67755;51.986;5.696;2023-03-15T03:08:10;8.4;55.2
78461;SHT31;67755;51.986;5.696;2023-03-15T03:10:42;8.4;55.3
78461;SHT31;67755;51.986;5.696;2023-03-15T03:13:12;8.4;55.2
78461;SHT31;67755;51.986;5.696;2023-03-15T03:15:43;8.4;55.3
78461;SHT31;67755;51.986;5.696;2023-03-15T03:18:13;8.3;55.2
78461;SHT31;67755;51.986;5.696;2023-03-15T03:20:42;8.3;54.9
78461;SHT31;67755;51.986;5.696;2023-03-15T03:23:13;8.3;55.4
78461;SHT31;67755;51.986;5.696;2023-03-15T03:25:42;8.3;55.2
78461;SHT31;67755;51.986;5.696;2023-03-15T03:28:14;8.2;55.2
78461;SHT31;67755;51.986;5.696;2023-03-15T03:30:44;8.2;55.3
78461;SHT31;67755;51.986;5.696;2023-03-15T03:33:14;8.2;55.4
78461;SHT31;67755;51.986;5.696;2023-03-15T03:35:43;8.2;55.5
78461;SHT31;67755;51.986;5.696;2023-03-15T03:38:14;8.2;55.7
78461;SHT31;67755;51.986;5.696;2023-03-15T03:40:44;8.1;55.5
78461;SHT31;67755;51.986;5.696;2023-03-15T03:43:14;8.1;55.6
78461;SHT31;67755;51.986;5.696;2023-03-15T03:45:44;8.1;55.6
78461;SHT31;67755;51.986;5.696;2023-03-15T03:48:15;8.1;55.4
78461;SHT31;67755;51.986;5.696;2023-03-15T03:50:45;8.1;55.3
78461;SHT31;67755;51.986;5.696;2023-03-15T03:53:14;8.1;55.3
78461;SHT31;67755;51.986;5.696;2023-03-15T03:55:45;8.1;55.3
78461;SHT31;67755;51.986;5.696;2023-03-15T03:58:15;8.0;55.2
78461;SHT31;67755;51.986;5.696;2023-03-15T04:00:45;8.0;55.1
78461;SHT31;67755;51.986;5.696;2023-03-15T04:03:15;8.0;55.0
78461;SHT31;67755;51.986;5.696;2023-03-15T04:05:44;8.0;55.1
78461;SHT31;67755;51.986;5.696;2023-03-15T04:08:14;8.0;55.0
78461;SHT31;67755;51.986;5.696;2023-03-15T04:10:43;8.0;55.0
78461;SHT31;67755;51.986;5.696;2023-03-15T04:13:15;7.9;55.1
78461;SHT31;67755;51.986;5.696;2023-03-15T04:15:44;7.9;55.2
78461;SHT31;67755;51.986;5.696;2023-03-15T04:18:14;7.9;55.2
78461;SHT31;67755;51.986;5.696;2023-03-15T04:20:46;7.9;54.9
78461;SHT31;67755;51.986;5.696;2023-03-15T04:23:16;7.9;54.9
78461;SHT31;67755;51.986;5.696;2023-03-15T04:25:49;7.8;54.8
78461;SHT31;67755;51.986;5.696;2023-03-15T04:28:21;7.8;54.8
78461;SHT31;67755;51.986;5.696;2023-03-15T04:30:51;7.8;54.8
78461;SHT31;67755;51.986;5.696;2023-03-15T04:33:25;7.8;54.9
78461;SHT31;67755;51.986;5.696;2023-03-15T04:35:56;7.8;54.7
78461;SHT31;67755;51.986;5.696;2023-03-15T04:38:26;7.8;54.6
78461;SHT31;67755;51.986;5.696;2023-03-15T04:41:00;7.8;54.6
78461;SHT31;67755;51.986;5.696;2023-03-15T04:43:34;7.8;54.6
78461;SHT31;67755;51.986;5.696;2023-03-15T04:46:04;7.7;54.5
78461;SHT31;67755;51.986;5.696;2023-03-15T04:48:34;7.7;54.4
78461;SHT31;67755;51.986;5.696;2023-03-15T04:51:09;7.7;54.3
78461;SHT31;67755;51.986;5.696;2023-03-15T04:53:40;7.7;54.6
78461;SHT31;67755;51.986;5.696;2023-03-15T04:56:11;7.7;54.4
78461;SHT31;67755;51.986;5.696;2023-03-15T04:58:43;7.7;54.5
78461;SHT31;67755;51.986;5.696;2023-03-15T05:01:12;7.7;54.3
78461;SHT31;67755;51.986;5.696;2023-03-15T05:03:42;7.7;54.4
78461;SHT31;67755;51.986;5.696;2023-03-15T05:06:11;7.7;54.2
78461;SHT31;67755;51.986;5.696;2023-03-15T05:08:41;7.6;54.2
78461;SHT31;67755;51.986;5.696;2023-03-15T05:11:11;7.6;54.3
78461;SHT31;67755;51.986;5.696;2023-03-15T05:13:41;7.6;54.3
78461;SHT31;67755;51.986;5.696;2023-03-15T05:16:11;7.6;54.2
78461;SHT31;67755;51.986;5.696;2023-03-15T05:18:41;7.6;54.2
78461;SHT31;67755;51.986;5.696;2023-03-15T05:21:12;7.6;54.1
78461;SHT31;67755;51.986;5.696;2023-03-15T05:23:42;7.6;54.1
78461;SHT31;67755;51.986;5.696;2023-03-15T05:26:11;7.6;54.2
78461;SHT31;67755;51.986;5.696;2023-03-15T05:28:43;7.6;54.1
78461;SHT31;67755;51.986;5.696;2023-03-15T05:31:15;7.6;54.0
78461;SHT31;67755;51.986;5.696;2023-03-15T05:33:44;7.6;53.9
78461;SHT31;67755;51.986;5.696;2023-03-15T05:36:14;7.6;54.0
78461;SHT31;67755;51.986;5.696;2023-03-15T05:38:44;7.6;54.0
78461;SHT31;67755;51.986;5.696;2023-03-15T05:41:14;7.6;54.0
78461;SHT31;67755;51.986;5.696;2023-03-15T05:43:44;7.6;54.0
78461;SHT31;67755;51.986;5.696;2023-03-15T05:46:14;7.6;54.3
78461;SHT31;67755;51.986;5.696;2023-03-15T05:48:43;7.6;54.1
78461;SHT31;67755;51.986;5.696;2023-03-15T05:51:13;7.6;54.3
78461;SHT31;67755;51.986;5.696;2023-03-15T05:53:42;7.6;54.1
78461;SHT31;67755;51.986;5.696;2023-03-15T05:56:12;7.6;54.0
78461;SHT31;67755;51.986;5.696;2023-03-15T05:58:41;7.6;53.9
78461;SHT31;67755;51.986;5.696;2023-03-15T06:01:11;7.5;53.9
78461;SHT31;67755;51.986;5.696;2023-03-15T06:03:41;7.5;54.0
78461;SHT31;67755;51.986;5.696;2023-03-15T06:06:10;7.5;54.1
78461;SHT31;67755;51.986;5.696;2023-03-15T06:08:39;7.4;54.5
78461;SHT31;67755;51.986;5.696;2023-03-15T06:11:09;7.4;54.5
78461;SHT31;67755;51.986;5.696;2023-03-15T06:13:39;7.4;54.5
78461;SHT31;67755;51.986;5.696;2023-03-15T06:16:08;7.4;54.7
78461;SHT31;67755;51.986;5.696;2023-03-15T06:18:38;7.3;55.0
78461;SHT31;67755;51.986;5.696;2023-03-15T06:21:07;7.3;55.2
78461;SHT31;67755;51.986;5.696;2023-03-15T06:23:37;7.3;55.4
78461;SHT31;67755;51.986;5.696;2023-03-15T06:26:10;7.3;55.5
78461;SHT31;67755;51.986;5.696;2023-03-15T06:28:41;7.3;55.6
78461;SHT31;67755;51.986;5.696;2023-03-15T06:31:12;7.2;55.4
78461;SHT31;67755;51.986;5.696;2023-03-15T06:33:42;7.2;55.5
78461;SHT31;67755;51.986;5.696;2023-03-15T06:36:12;7.2;55.5
78461;SHT31;67755;51.986;5.696;2023-03-15T06:38:42;7.2;55.5
78461;SHT31;67755;51.986;5.696;2023-03-15T06:41:11;7.2;55.8
78461;SHT31;67755;51.986;5.696;2023-03-15T06:43:42;7.2;55.7
78461;SHT31;67755;51.986;5.696;2023-03-15T06:46:11;7.2;55.8
78461;SHT31;67755;51.986;5.696;2023-03-15T06:48:41;7.2;56.1
78461;SHT31;67755;51.986;5.696;2023-03-15T06:51:11;7.1;56.2
78461;SHT31;67755;51.986;5.696;2023-03-15T06:53:40;7.1;56.4
78461;SHT31;67755;51.986;5.696;2023-03-15T06:56:10;7.1;56.4
78461;SHT31;67755;51.986;5.696;2023-03-15T06:58:40;7.1;56.5
78461;SHT31;67755;51.986;5.696;2023-03-15T07:01:12;7.1;56.9
78461;SHT31;67755;51.986;5.696;2023-03-15T07:03:46;7.1;56.7
78461;SHT31;67755;51.986;5.696;2023-03-15T07:06:15;7.1;57.0
78461;SHT31;67755;51.986;5.696;2023-03-15T07:08:45;7.1;57.2
78461;SHT31;67755;51.986;5.696;2023-03-15T07:11:15;7.1;57.3
78461;SHT31;67755;51.986;5.696;2023-03-15T07:13:46;7.1;58.1
78461;SHT31;67755;51.986;5.696;2023-03-15T07:16:18;7.1;57.6
78461;SHT31;67755;51.986;5.696;2023-03-15T07:18:47;7.1;57.5
78461;SHT31;67755;51.986;5.696;2023-03-15T07:21:17;7.1;57.7
78461;SHT31;67755;51.986;5.696;2023-03-15T07:23:47;7.2;57.7
78461;SHT31;67755;51.986;5.696;2023-03-15T07:26:17;7.2;58.0
78461;SHT31;67755;51.986;5.696;2023-03-15T07:28:46;7.2;58.2
78461;SHT31;67755;51.986;5.696;2023-03-15T07:31:18;7.2;58.3
78461;SHT31;67755;51.986;5.696;2023-03-15T07:33:48;7.2;58.4
78461;SHT31;67755;51.986;5.696;2023-03-15T07:36:18;7.2;58.8
78461;SHT31;67755;51.986;5.696;2023-03-15T07:38:50;7.2;58.9
78461;SHT31;67755;51.986;5.696;2023-03-15T07:41:20;7.2;59.7
78461;SHT31;67755;51.986;5.696;2023-03-15T07:43:50;7.3;59.8
78461;SHT31;67755;51.986;5.696;2023-03-15T07:46:19;7.3;59.7
78461;SHT31;67755;51.986;5.696;2023-03-15T07:48:49;7.3;59.7
78461;SHT31;67755;51.986;5.696;2023-03-15T07:51:18;7.3;59.3
78461;SHT31;67755;51.986;5.696;2023-03-15T07:53:48;7.4;59.6
78461;SHT31;67755;51.986;5.696;2023-03-15T07:56:17;7.4;59.5
78461;SHT31;67755;51.986;5.696;2023-03-15T07:58:47;7.4;59.5
78461;SHT31;67755;51.986;5.696;2023-03-15T08:01:16;7.5;59.7
78461;SHT31;67755;51.986;5.696;2023-03-15T08:03:49;7.5;60.4
78461;SHT31;67755;51.986;5.696;2023-03-15T08:06:19;7.5;60.2
78461;SHT31;67755;51.986;5.696;2023-03-15T08:08:48;7.6;60.1
78461;SHT31;67755;51.986;5.696;2023-03-15T08:11:18;7.6;59.9
78461;SHT31;67755;51.986;5.696;2023-03-15T08:13:47;7.7;59.9
78461;SHT31;67755;51.986;5.696;2023-03-15T08:16:17;7.7;59.7
78461;SHT31;67755;51.986;5.696;2023-03-15T08:18:47;7.8;60.1
78461;SHT31;67755;51.986;5.696;2023-03-15T08:21:18;7.8;60.0
78461;SHT31;67755;51.986;5.696;2023-03-15T08:23:48;7.8;60.4
78461;SHT31;67755;51.986;5.696;2023-03-15T08:26:18;7.9;60.2
78461;SHT31;67755;51.986;5.696;2023-03-15T08:28:47;7.9;60.1
78461;SHT31;67755;51.986;5.696;2023-03-15T08:31:19;8.0;60.3
78461;SHT31;67755;51.986;5.696;2023-03-15T08:33:48;8.0;60.5
78461;SHT31;67755;51.986;5.696;2023-03-15T08:36:18;8.1;60.6
78461;SHT31;67755;51.986;5.696;2023-03-15T08:38:48;8.1;60.7
78461;SHT31;67755;51.986;5.696;2023-03-15T08:41:18;8.2;60.4
78461;SHT31;67755;51.986;5.696;2023-03-15T08:43:47;8.3;57.6
78461;SHT31;67755;51.986;5.696;2023-03-15T08:46:17;8.3;58.4
78461;SHT31;67755;51.986;5.696;2023-03-15T08:48:48;8.3;58.9
78461;SHT31;67755;51.986;5.696;2023-03-15T08:51:18;8.4;59.0
78461;SHT31;67755;51.986;5.696;2023-03-15T08:53:48;8.4;58.3
78461;SHT31;67755;51.986;5.696;2023-03-15T08:56:18;8.4;59.5
78461;SHT31;67755;51.986;5.696;2023-03-15T08:58:48;8.5;57.3
78461;SHT31;67755;51.986;5.696;2023-03-15T09:01:18;8.5;55.6
78461;SHT31;67755;51.986;5.696;2023-03-15T09:03:48;8.6;58.4
78461;SHT31;67755;51.986;5.696;2023-03-15T09:06:18;8.7;57.4
78461;SHT31;67755;51.986;5.696;2023-03-15T09:08:47;8.8;58.5
78461;SHT31;67755;51.986;5.696;2023-03-15T09:11:17;8.9;56.6
78461;SHT31;67755;51.986;5.696;2023-03-15T09:13:47;8.9;58.1
78461;SHT31;67755;51.986;5.696;2023-03-15T09:16:17;9.0;58.5
78461;SHT31;67755;51.986;5.696;2023-03-15T09:18:48;9.0;56.8
78461;SHT31;67755;51.986;5.696;2023-03-15T09:21:18;9.1;57.9
78461;SHT31;67755;51.986;5.696;2023-03-15T09:23:47;9.2;58.3
78461;SHT31;67755;51.986;5.696;2023-03-15T09:26:17;9.3;58.5
78461;SHT31;67755;51.986;5.696;2023-03-15T09:28:49;9.3;56.0
78461;SHT31;67755;51.986;5.696;2023-03-15T09:31:19;9.4;55.7
78461;SHT31;67755;51.986;5.696;2023-03-15T09:33:48;9.5;56.2
78461;SHT31;67755;51.986;5.696;2023-03-15T09:36:18;9.5;56.5
78461;SHT31;67755;51.986;5.696;2023-03-15T09:38:49;9.6;52.6
78461;SHT31;67755;51.986;5.696;2023-03-15T09:41:31;9.7;55.9
78461;SHT31;67755;51.986;5.696;2023-03-15T09:44:13;9.7;53.1
78461;SHT31;67755;51.986;5.696;2023-03-15T09:46:55;9.8;53.2
78461;SHT31;67755;51.986;5.696;2023-03-15T09:49:35;9.9;54.4
78461;SHT31;67755;51.986;5.696;2023-03-15T09:52:13;10.0;52.3
78461;SHT31;67755;51.986;5.696;2023-03-15T09:54:51;10.1;53.5
78461;SHT31;67755;51.986;5.696;2023-03-15T09:57:33;10.1;52.7
78461;SHT31;67755;51.986;5.696;2023-03-15T10:00:11;10.2;49.6
78461;SHT31;67755;51.986;5.696;2023-03-15T10:02:50;10.2;47.9
78461;SHT31;67755;51.986;5.696;2023-03-15T10:05:30;10.3;46.3
78461;SHT31;67755;51.986;5.696;2023-03-15T10:08:00;10.3;47.1
78461;SHT31;67755;51.986;5.696;2023-03-15T10:10:35;10.3;47.7
78461;SHT31;67755;51.986;5.696;2023-03-15T10:13:30;10.3;51.4
78461;SHT31;67755;51.986;5.696;2023-03-15T10:16:13;10.4;48.6
78461;SHT31;67755;51.986;5.696;2023-03-15T10:19:00;10.4;52.7
78461;SHT31;67755;51.986;5.696;2023-03-15T10:21:39;10.5;51.2
78461;SHT31;67755;51.986;5.696;2023-03-15T10:24:17;10.5;48.6
78461;SHT31;67755;51.986;5.696;2023-03-15T10:26:49;10.6;48.5
78461;SHT31;67755;51.986;5.696;2023-03-15T10:29:24;10.7;50.8
78461;SHT31;67755;51.986;5.696;2023-03-15T10:31:55;10.7;50.2
78461;SHT31;67755;51.986;5.696;2023-03-15T10:34:25;10.8;48.8
78461;SHT31;67755;51.986;5.696;2023-03-15T10:36:55;10.8;46.5
78461;SHT31;67755;51.986;5.696;2023-03-15T10:39:27;10.9;45.6
78461;SHT31;67755;51.986;5.696;2023-03-15T10:42:00;10.9;45.3
78461;SHT31;67755;51.986;5.696;2023-03-15T10:44:35;11.0;47.3
78461;SHT31;67755;51.986;5.696;2023-03-15T10:47:12;11.0;42.7
78461;SHT31;67755;51.986;5.696;2023-03-15T10:49:44;11.1;43.9
78461;SHT31;67755;51.986;5.696;2023-03-15T10:52:26;11.1;43.9
78461;SHT31;67755;51.986;5.696;2023-03-15T10:54:58;11.2;42.6
78461;SHT31;67755;51.986;5.696;2023-03-15T10:57:33;11.2;44.3
78461;SHT31;67755;51.986;5.696;2023-03-15T11:00:12;11.3;43.3
78461;SHT31;67755;51.986;5.696;2023-03-15T11:02:49;11.3;44.2
78461;SHT31;67755;51.986;5.696;2023-03-15T11:05:19;11.4;44.1
78461;SHT31;67755;51.986;5.696;2023-03-15T11:07:57;11.4;42.8
78461;SHT31;67755;51.986;5.696;2023-03-15T11:10:28;11.4;41.8
78461;SHT31;67755;51.986;5.696;2023-03-15T11:13:17;11.5;40.8
78461;SHT31;67755;51.986;5.696;2023-03-15T11:15:54;11.5;40.4
78461;SHT31;67755;51.986;5.696;2023-03-15T11:18:30;11.6;41.2
78461;SHT31;67755;51.986;5.696;2023-03-15T11:21:03;11.6;43.3
78461;SHT31;67755;51.986;5.696;2023-03-15T11:23:37;11.6;43.2
78461;SHT31;67755;51.986;5.696;2023-03-15T11:26:09;11.6;41.0
78461;SHT31;67755;51.986;5.696;2023-03-15T11:28:48;11.6;41.1
78461;SHT31;67755;51.986;5.696;2023-03-15T11:31:21;11.6;40.5
78461;SHT31;67755;51.986;5.696;2023-03-15T11:33:55;11.6;39.3
78461;SHT31;67755;51.986;5.696;2023-03-15T11:36:31;11.6;40.2
78461;SHT31;67755;51.986;5.696;2023-03-15T11:39:02;11.6;39.9
78461;SHT31;67755;51.986;5.696;2023-03-15T11:41:37;11.5;40.5
78461;SHT31;67755;51.986;5.696;2023-03-15T11:44:15;11.5;39.0
78461;SHT31;67755;51.986;5.696;2023-03-15T11:46:54;11.5;38.1
78461;SHT31;67755;51.986;5.696;2023-03-15T11:49:33;11.5;38.9
78461;SHT31;67755;51.986;5.696;2023-03-15T11:52:05;11.5;38.9
78461;SHT31;67755;51.986;5.696;2023-03-15T11:54:35;11.6;40.1
78461;SHT31;67755;51.986;5.696;2023-03-15T11:57:33;11.6;39.4
78461;SHT31;67755;51.986;5.696;2023-03-15T11:59:44;11.6;38.3
78461;SHT31;67755;51.986;5.696;2023-03-15T12:02:48;11.6;35.9
78461;SHT31;67755;51.986;5.696;2023-03-15T12:06:02;11.6;38.5
78461;SHT31;67755;51.986;5.696;2023-03-15T12:08:44;11.6;39.0
78461;SHT31;67755;51.986;5.696;2023-03-15T12:11:37;11.6;38.8
78461;SHT31;67755;51.986;5.696;2023-03-15T12:14:50;11.7;38.4
78461;SHT31;67755;51.986;5.696;2023-03-15T12:17:42;11.7;36.5
78461;SHT31;67755;51.986;5.696;2023-03-15T12:20:30;11.7;36.7
78461;SHT31;67755;51.986;5.696;2023-03-15T12:23:21;11.7;38.0
78461;SHT31;67755;51.986;5.696;2023-03-15T12:25:57;11.7;37.8
78461;SHT31;67755;51.986;5.696;2023-03-15T12:28:34;11.8;37.3
78461;SHT31;67755;51.986;5.696;2023-03-15T12:31:06;11.8;35.5
78461;SHT31;67755;51.986;5.696;2023-03-15T12:33:46;11.8;37.2
78461;SHT31;67755;51.986;5.696;2023-03-15T12:36:25;11.8;38.8
78461;SHT31;67755;51.986;5.696;2023-03-15T12:38:59;11.8;38.2
78461;SHT31;67755;51.986;5.696;2023-03-15T12:41:36;11.9;36.1
78461;SHT31;67755;51.986;5.696;2023-03-15T12:44:23;11.9;37.4
78461;SHT31;67755;51.986;5.696;2023-03-15T12:46:55;12.0;35.6
78461;SHT31;67755;51.986;5.696;2023-03-15T12:49:40;12.0;34.7
78461;SHT31;67755;51.986;5.696;2023-03-15T12:52:39;12.0;36.5
78461;SHT31;67755;51.986;5.696;2023-03-15T12:55:15;12.1;37.4
78461;SHT31;67755;51.986;5.696;2023-03-15T12:57:49;12.1;36.7
78461;SHT31;67755;51.986;5.696;2023-03-15T13:00:24;12.2;35.4
78461;SHT31;67755;51.986;5.696;2023-03-15T13:03:02;12.2;37.1
78461;SHT31;67755;51.986;5.696;2023-03-15T13:05:39;12.2;36.6
78461;SHT31;67755;51.986;5.696;2023-03-15T13:08:19;12.3;37.2
78461;SHT31;67755;51.986;5.696;2023-03-15T13:11:04;12.3;35.7
78461;SHT31;67755;51.986;5.696;2023-03-15T13:14:31;12.3;35.1
78461;SHT31;67755;51.986;5.696;2023-03-15T13:17:15;12.4;34.2
78461;SHT31;67755;51.986;5.696;2023-03-15T13:20:00;12.4;34.3
78461;SHT31;67755;51.986;5.696;2023-03-15T13:22:36;12.4;35.6
78461;SHT31;67755;51.986;5.696;2023-03-15T13:25:16;12.5;34.8
78461;SHT31;67755;51.986;5.696;2023-03-15T13:27:53;12.5;35.4
78461;SHT31;67755;51.986;5.696;2023-03-15T13:30:46;12.5;34.4
78461;SHT31;67755;51.986;5.696;2023-03-15T13:33:21;12.5;35.9
78461;SHT31;67755;51.986;5.696;2023-03-15T13:35:59;12.6;35.3
78461;SHT31;67755;51.986;5.696;2023-03-15T13:38:32;12.6;36.1
78461;SHT31;67755;51.986;5.696;2023-03-15T13:41:04;12.6;35.7
78461;SHT31;67755;51.986;5.696;2023-03-15T13:43:37;12.6;34.8
78461;SHT31;67755;51.986;5.696;2023-03-15T13:46:09;12.6;34.0
78461;SHT31;67755;51.986;5.696;2023-03-15T13:48:42;12.7;33.2
78461;SHT31;67755;51.986;5.696;2023-03-15T13:51:17;12.7;32.7
78461;SHT31;67755;51.986;5.696;2023-03-15T13:53:52;12.7;33.2
78461;SHT31;67755;51.986;5.696;2023-03-15T13:56:29;12.7;33.0
78461;SHT31;67755;51.986;5.696;2023-03-15T13:59:01;12.7;33.9
78461;SHT31;67755;51.986;5.696;2023-03-15T14:01:36;12.7;33.4
78461;SHT31;67755;51.986;5.696;2023-03-15T14:04:14;12.7;32.9
78461;SHT31;67755;51.986;5.696;2023-03-15T14:06:45;12.7;32.3
78461;SHT31;67755;51.986;5.696;2023-03-15T14:09:21;12.7;34.2
78461;SHT31;67755;51.986;5.696;2023-03-15T14:12:05;12.7;33.5
78461;SHT31;67755;51.986;5.696;2023-03-15T14:14:47;12.7;34.2
78461;SHT31;67755;51.986;5.696;2023-03-15T14:17:24;12.7;34.7
78461;SHT31;67755;51.986;5.696;2023-03-15T14:20:04;12.7;33.3
78461;SHT31;67755;51.986;5.696;2023-03-15T14:22:35;12.7;36.0
78461;SHT31;67755;51.986;5.696;2023-03-15T14:25:20;12.8;33.8
78461;SHT31;67755;51.986;5.696;2023-03-15T14:27:51;12.8;33.3
78461;SHT31;67755;51.986;5.696;2023-03-15T14:30:23;12.8;33.6
78461;SHT31;67755;51.986;5.696;2023-03-15T14:32:56;12.7;33.6
78461;SHT31;67755;51.986;5.696;2023-03-15T14:35:29;12.7;33.3
78461;SHT31;67755;51.986;5.696;2023-03-15T14:38:06;12.7;32.1
78461;SHT31;67755;51.986;5.696;2023-03-15T14:40:37;12.7;33.1
78461;SHT31;67755;51.986;5.696;2023-03-15T14:43:08;12.7;32.7
78461;SHT31;67755;51.986;5.696;2023-03-15T14:45:41;12.7;34.4
78461;SHT31;67755;51.986;5.696;2023-03-15T14:48:14;12.6;35.3
78461;SHT31;67755;51.986;5.696;2023-03-15T14:50:47;12.6;33.2
78461;SHT31;67755;51.986;5.696;2023-03-15T14:53:20;12.6;33.5
78461;SHT31;67755;51.986;5.696;2023-03-15T14:55:51;12.6;33.0
78461;SHT31;67755;51.986;5.696;2023-03-15T14:58:21;12.6;33.0
78461;SHT31;67755;51.986;5.696;2023-03-15T15:00:53;12.5;33.9
78461;SHT31;67755;51.986;5.696;2023-03-15T15:03:30;12.5;34.5
78461;SHT31;67755;51.986;5.696;2023-03-15T15:06:02;12.5;33.4
78461;SHT31;67755;51.986;5.696;2023-03-15T15:08:32;12.5;32.9
78461;SHT31;67755;51.986;5.696;2023-03-15T15:11:12;12.5;34.6
78461;SHT31;67755;51.986;5.696;2023-03-15T15:13:44;12.5;33.5
78461;SHT31;67755;51.986;5.696;2023-03-15T15:16:14;12.5;32.7
78461;SHT31;67755;51.986;5.696;2023-03-15T15:18:43;12.5;34.3
78461;SHT31;67755;51.986;5.696;2023-03-15T15:21:18;12.4;33.4
78461;SHT31;67755;51.986;5.696;2023-03-15T15:23:50;12.4;34.6
78461;SHT31;67755;51.986;5.696;2023-03-15T15:26:23;12.4;37.1
78461;SHT31;67755;51.986;5.696;2023-03-15T15:28:56;12.4;34.4
78461;SHT31;67755;51.986;5.696;2023-03-15T15:31:26;12.4;32.5
78461;SHT31;67755;51.986;5.696;2023-03-15T15:34:00;12.4;33.8
78461;SHT31;67755;51.986;5.696;2023-03-15T15:36:33;12.4;36.4
78461;SHT31;67755;51.986;5.696;2023-03-15T15:39:08;12.4;37.3
78461;SHT31;67755;51.986;5.696;2023-03-15T15:41:39;12.4;37.4
78461;SHT31;67755;51.986;5.696;2023-03-15T15:44:14;12.4;35.4
78461;SHT31;67755;51.986;5.696;2023-03-15T15:46:44;12.4;34.5
78461;SHT31;67755;51.986;5.696;2023-03-15T15:49:14;12.4;35.1
78461;SHT31;67755;51.986;5.696;2023-03-15T15:51:46;12.4;37.3
78461;SHT31;67755;51.986;5.696;2023-03-15T15:54:19;12.4;38.0
78461;SHT31;67755;51.986;5.696;2023-03-15T15:56:53;12.4;35.2
78461;SHT31;67755;51.986;5.696;2023-03-15T15:59:31;12.4;35.7
78461;SHT31;67755;51.986;5.696;2023-03-15T16:02:00;12.4;36.3
78461;SHT31;67755;51.986;5.696;2023-03-15T16:04:33;12.4;35.4
78461;SHT31;67755;51.986;5.696;2023-03-15T16:07:03;12.4;34.8
78461;SHT31;67755;51.986;5.696;2023-03-15T16:09:34;12.4;35.5
78461;SHT31;67755;51.986;5.696;2023-03-15T16:12:13;12.4;33.6
78461;SHT31;67755;51.986;5.696;2023-03-15T16:14:43;12.4;35.1
78461;SHT31;67755;51.986;5.696;2023-03-15T16:17:16;12.4;37.3
78461;SHT31;67755;51.986;5.696;2023-03-15T16:19:48;12.4;38.3
78461;SHT31;67755;51.986;5.696;2023-03-15T16:22:20;12.3;39.5
78461;SHT31;67755;51.986;5.696;2023-03-15T16:24:53;12.3;38.2
78461;SHT31;67755;51.986;5.696;2023-03-15T16:27:28;12.3;38.1
78461;SHT31;67755;51.986;5.696;2023-03-15T16:29:58;12.3;38.6
78461;SHT31;67755;51.986;5.696;2023-03-15T16:32:29;12.3;39.2
78461;SHT31;67755;51.986;5.696;2023-03-15T16:35:01;12.3;38.7
78461;SHT31;67755;51.986;5.696;2023-03-15T16:37:32;12.3;39.5
78461;SHT31;67755;51.986;5.696;2023-03-15T16:40:02;12.3;38.2
78461;SHT31;67755;51.986;5.696;2023-03-15T16:42:37;12.2;37.9
78461;SHT31;67755;51.986;5.696;2023-03-15T16:45:11;12.2;40.5
78461;SHT31;67755;51.986;5.696;2023-03-15T16:47:41;12.2;41.0
78461;SHT31;67755;51.986;5.696;2023-03-15T16:50:12;12.2;40.0